Time;durP1;ratioP1;P1;durP2;ratioP2;P2;SDS_P1;SDS_P2;PMS_P1;PMS_P2;Temp;Humidity;BMP_temperature;BMP_pressure;BME280_temperature;BME280_humidity;BME280_pressure;Samples;Min_cycle;Max_cycle;Signal;HPM_P1;HPM_P2
2022/01/08 00:00:51;;;;;;;8.57;3.58;;;2.70;99.90;;;;;;5111801;28;20096;-70
2022/01/08 00:03:17;;;;;;;7.90;3.03;;;2.70;99.90;;;;;;5110233;28;20407;-70
2022/01/08 00:05:43;;;;;;;7.45;2.50;;;2.60;99.90;;;;;;5110628;28;20039;-70
2022/01/08 00:08:08;;;;;;;8.48;2.33;;;2.70;99.90;;;;;;5093381;28;20448;-70
2022/01/08 00:10:34;;;;;;;6.25;2.10;;;2.60;99.90;;;;;;5111246;28;20074;-70
2022/01/08 00:13:05;;;;;;;5.18;1.80;;;2.70;99.90;;;;;;5092097;28;20080;-70
2022/01/08 00:15:31;;;;;;;5.32;1.60;;;2.70;99.90;;;;;;5112367;28;20392;-70
2022/01/08 00:17:57;;;;;;;5.40;2.03;;;2.80;99.90;;;;;;5111464;28;20043;-70
2022/01/08 00:20:23;;;;;;;5.53;1.67;;;2.70;99.90;;;;;;5095153;28;20032;-69
2022/01/08 00:22:51;;;;;;;3.47;1.80;;;2.80;99.90;;;;;;5110794;28;20084;-70
2022/01/08 00:25:17;;;;;;;5.43;1.77;;;2.80;99.90;;;;;;5110258;28;20539;-70
2022/01/08 00:27:43;;;;;;;5.60;1.60;;;2.70;99.90;;;;;;5092858;28;20091;-70
2022/01/08 00:30:09;;;;;;;6.32;2.20;;;2.70;99.90;;;;;;5111076;28;20408;-69
2022/01/08 00:32:36;;;;;;;3.65;1.85;;;2.80;99.90;;;;;;5111778;28;20031;-70
2022/01/08 00:35:02;;;;;;;5.20;1.95;;;2.70;99.90;;;;;;5110988;28;20377;-70
2022/01/08 00:37:28;;;;;;;6.35;2.17;;;2.70;99.90;;;;;;5094561;28;20046;-70
2022/01/08 00:39:53;;;;;;;6.85;2.83;;;2.70;99.90;;;;;;5111930;28;20036;-69
2022/01/08 00:42:19;;;;;;;6.07;2.05;;;2.70;99.90;;;;;;5094043;28;20066;-70
2022/01/08 00:44:44;;;;;;;5.35;1.98;;;2.70;99.90;;;;;;5111961;28;20135;-70
2022/01/08 00:47:11;;;;;;;6.07;2.20;;;2.80;99.90;;;;;;5094928;28;20115;-70
2022/01/08 00:49:37;;;;;;;4.75;1.55;;;2.70;99.90;;;;;;5091765;28;20384;-70
2022/01/08 00:52:04;;;;;;;6.78;2.00;;;2.70;99.90;;;;;;5106208;28;20061;-69
2022/01/08 00:54:29;;;;;;;5.05;2.22;;;2.70;99.90;;;;;;5108126;28;20040;-70
2022/01/08 00:56:57;;;;;;;6.22;2.50;;;2.60;99.90;;;;;;5111610;28;20038;-70
2022/01/08 00:59:23;;;;;;;5.15;2.17;;;2.60;99.90;;;;;;5132834;27;20376;-70
2022/01/08 01:01:48;;;;;;;4.32;1.98;;;2.60;99.90;;;;;;5096407;28;20123;-70
2022/01/08 01:04:14;;;;;;;3.95;1.67;;;2.60;99.90;;;;;;5098519;28;20043;-70
2022/01/08 01:06:40;;;;;;;5.57;2.53;;;2.60;99.90;;;;;;5097292;28;20035;-69
2022/01/08 01:09:05;;;;;;;7.60;2.75;;;2.60;99.90;;;;;;5097255;28;20050;-69
2022/01/08 01:11:31;;;;;;;9.70;3.08;;;2.50;99.90;;;;;;5098237;28;20050;-70
2022/01/08 01:13:56;;;;;;;6.35;2.63;;;2.40;99.90;;;;;;5097298;28;20035;-69
2022/01/08 01:16:22;;;;;;;6.40;2.70;;;2.40;99.90;;;;;;5098352;28;20126;-69
2022/01/08 01:18:47;;;;;;;6.75;2.83;;;2.40;99.90;;;;;;5123680;27;20031;-69
2022/01/08 01:21:13;;;;;;;6.07;2.50;;;2.30;99.90;;;;;;5118668;27;20039;-70
2022/01/08 01:23:42;;;;;;;7.30;2.65;;;2.40;99.90;;;;;;5123469;27;20044;-69
2022/01/08 01:26:13;;;;;;;6.85;2.72;;;2.50;99.90;;;;;;5097898;28;20067;-69
2022/01/08 01:28:48;;;;;;;6.68;2.78;;;2.60;99.90;;;;;;5113831;28;20114;-69
2022/01/08 01:47:17;;;;;;;6.65;2.53;;;2.60;99.90;;;;;;5094165;28;20080;-69
2022/01/08 01:49:45;;;;;;;6.53;2.85;;;2.70;99.90;;;;;;5094466;28;20396;-69
2022/01/08 01:52:14;;;;;;;7.47;3.08;;;2.70;99.90;;;;;;5112190;28;20086;-69
2022/01/08 01:54:40;;;;;;;10.05;3.45;;;2.80;99.90;;;;;;5097220;28;20147;-69
2022/01/08 01:57:07;;;;;;;7.78;3.38;;;2.80;99.90;;;;;;5096018;28;20035;-69
2022/01/08 01:59:34;;;;;;;8.23;3.90;;;2.60;99.90;;;;;;5113234;28;20038;-69
2022/01/08 02:02:00;;;;;;;10.05;3.65;;;2.60;99.90;;;;;;5114140;28;20078;-70
2022/01/08 02:04:27;;;;;;;9.40;3.90;;;2.50;99.90;;;;;;5113416;28;20050;-70
2022/01/08 02:06:53;;;;;;;7.32;3.53;;;2.60;99.90;;;;;;5097331;28;20073;-70
2022/01/08 02:09:19;;;;;;;8.85;4.47;;;2.80;99.90;;;;;;5112910;28;20479;-70
2022/01/08 02:12:17;;;;;;;9.05;4.20;;;2.70;99.90;;;;;;5110691;28;20039;-70
2022/01/08 02:14:45;;;;;;;8.95;4.65;;;2.80;99.90;;;;;;5101587;28;20055;-70
2022/01/08 02:17:11;;;;;;;10.50;4.13;;;2.70;99.90;;;;;;5096560;28;20080;-70
2022/01/08 02:19:38;;;;;;;8.52;4.05;;;2.80;99.90;;;;;;5110761;28;20399;-70
2022/01/08 02:22:06;;;;;;;9.30;3.53;;;2.90;99.90;;;;;;5096751;28;20039;-70
2022/01/08 02:24:32;;;;;;;8.90;4.00;;;2.80;99.90;;;;;;5112601;28;20051;-70
2022/01/08 02:26:58;;;;;;;12.30;4.90;;;2.80;99.90;;;;;;5113923;28;20079;-70
2022/01/08 02:29:25;;;;;;;9.43;5.18;;;2.60;99.90;;;;;;5113099;28;20067;-70
2022/01/08 02:31:57;;;;;;;8.82;5.03;;;2.50;99.90;;;;;;5096815;28;20487;-70
2022/01/08 02:34:24;;;;;;;11.73;5.30;;;2.50;99.90;;;;;;5112414;28;20047;-70
2022/01/08 02:36:50;;;;;;;9.35;4.55;;;2.40;99.90;;;;;;5111245;28;20058;-69
2022/01/08 02:39:16;;;;;;;10.07;5.68;;;2.50;99.90;;;;;;5112310;28;20039;-70
2022/01/08 02:41:41;;;;;;;8.65;4.95;;;2.50;99.90;;;;;;5112236;28;20044;-70
2022/01/08 02:44:07;;;;;;;12.27;4.93;;;2.50;99.90;;;;;;5096080;28;20551;-70
2022/01/08 02:46:33;;;;;;;13.18;5.75;;;2.40;99.90;;;;;;5110319;28;20040;-69
2022/01/08 02:48:58;;;;;;;11.40;5.20;;;2.20;99.90;;;;;;5113245;28;20039;-70
2022/01/08 02:51:24;;;;;;;10.80;5.25;;;2.30;99.90;;;;;;5113178;28;20051;-69
2022/01/08 02:53:50;;;;;;;9.95;4.70;;;2.30;99.90;;;;;;5112113;28;20059;-69
2022/01/08 02:56:16;;;;;;;8.20;4.63;;;2.20;99.90;;;;;;5113402;28;20043;-69
2022/01/08 02:58:42;;;;;;;12.35;5.10;;;2.30;99.90;;;;;;5109389;28;20036;-69
2022/01/08 03:01:07;;;;;;;9.45;4.68;;;2.40;99.90;;;;;;5096129;28;20032;-70
2022/01/08 03:03:33;;;;;;;8.95;4.72;;;2.30;99.90;;;;;;5094383;28;20039;-69
2022/01/08 03:05:59;;;;;;;9.90;5.18;;;2.30;99.90;;;;;;5113197;28;20498;-69
2022/01/08 03:08:26;;;;;;;9.40;4.07;;;2.10;99.90;;;;;;5095349;28;20134;-69
2022/01/08 03:10:52;;;;;;;11.25;4.72;;;2.30;99.90;;;;;;5094910;28;20035;-69
2022/01/08 03:13:18;;;;;;;8.15;4.00;;;2.40;99.90;;;;;;5110580;28;20053;-69
2022/01/08 03:15:43;;;;;;;9.20;3.97;;;2.30;99.90;;;;;;5094745;28;20031;-69
2022/01/08 03:18:09;;;;;;;8.23;3.80;;;2.30;99.90;;;;;;5112741;28;20184;-70
2022/01/08 03:20:43;;;;;;;7.95;3.42;;;2.40;99.90;;;;;;5112342;28;20036;-69
2022/01/08 03:23:14;;;;;;;7.97;3.47;;;2.50;99.90;;;;;;5112453;28;20047;-69
2022/01/08 03:25:39;;;;;;;7.97;3.70;;;2.40;99.90;;;;;;5112698;28;20032;-69
2022/01/08 03:28:05;;;;;;;7.40;3.38;;;2.30;99.90;;;;;;5111755;28;20028;-69
2022/01/08 03:30:31;;;;;;;9.95;4.03;;;2.30;99.90;;;;;;5094780;28;20058;-69
2022/01/08 03:32:56;;;;;;;9.75;3.63;;;2.30;99.90;;;;;;5107737;28;20050;-69
2022/01/08 03:35:22;;;;;;;7.55;3.88;;;2.20;99.90;;;;;;5111804;28;20058;-69
2022/01/08 03:37:47;;;;;;;7.75;3.20;;;2.10;99.90;;;;;;5094549;28;20028;-69
2022/01/08 03:40:13;;;;;;;9.13;3.40;;;2.20;99.90;;;;;;5091206;28;20040;-69
2022/01/08 03:42:39;;;;;;;6.80;3.55;;;2.20;99.90;;;;;;5108364;28;20063;-69
2022/01/08 03:45:05;;;;;;;10.18;4.50;;;2.10;99.90;;;;;;5106131;28;20036;-69
2022/01/08 03:48:04;;;;;;;7.28;3.28;;;2.10;99.90;;;;;;5108062;28;20048;-69
2022/01/08 03:50:17;;;;;;;10.05;4.25;;;2.20;99.90;;;;;;5094972;28;20044;-69
2022/01/08 03:52:45;;;;;;;7.75;3.35;;;2.20;99.90;;;;;;5110741;28;20039;-69
2022/01/08 03:55:11;;;;;;;7.85;2.97;;;2.30;99.90;;;;;;5095170;28;20078;-69
2022/01/08 03:57:37;;;;;;;9.23;3.20;;;2.40;99.90;;;;;;5111643;28;20055;-69
2022/01/08 04:00:04;;;;;;;8.27;3.20;;;2.40;99.90;;;;;;5112333;28;20484;-69
2022/01/08 04:02:30;;;;;;;10.88;3.95;;;2.40;99.90;;;;;;5105985;28;20027;-69
2022/01/08 04:04:55;;;;;;;7.50;3.42;;;2.40;99.90;;;;;;5113954;28;20580;-69
2022/01/08 04:07:21;;;;;;;6.85;2.95;;;2.20;99.90;;;;;;5096282;28;20039;-69
2022/01/08 04:09:46;;;;;;;5.35;2.45;;;2.20;99.90;;;;;;5082851;28;20510;-69
2022/01/08 04:12:16;;;;;;;8.02;2.83;;;2.30;99.90;;;;;;5088968;28;20387;-69
2022/01/08 04:14:53;;;;;;;9.02;3.13;;;2.20;99.90;;;;;;5107511;28;20040;-69
2022/01/08 04:17:19;;;;;;;8.27;3.20;;;2.10;99.90;;;;;;5112216;28;20039;-69
2022/01/08 04:19:44;;;;;;;8.15;2.67;;;2.00;99.90;;;;;;5093085;28;20035;-69
2022/01/08 04:22:12;;;;;;;6.32;2.70;;;2.10;99.90;;;;;;5112176;28;20039;-69
2022/01/08 04:24:42;;;;;;;7.32;2.50;;;2.10;99.90;;;;;;5128230;28;20040;-69
2022/01/08 04:27:07;;;;;;;7.35;2.55;;;2.20;99.90;;;;;;5095065;28;20123;-69
2022/01/08 04:29:33;;;;;;;4.85;2.33;;;2.10;99.90;;;;;;5110203;28;20184;-70
2022/01/08 04:31:58;;;;;;;6.95;2.75;;;2.20;99.90;;;;;;5112081;28;20038;-69
2022/01/08 04:34:24;;;;;;;4.65;1.92;;;2.20;99.90;;;;;;5107956;27;20119;-70
2022/01/08 04:36:50;;;;;;;6.47;1.70;;;2.20;99.90;;;;;;5119109;27;20118;-70
2022/01/08 04:39:15;;;;;;;6.05;2.03;;;2.30;99.90;;;;;;5119194;27;20075;-69
2022/01/08 04:41:43;;;;;;;3.95;1.63;;;2.20;99.90;;;;;;5117991;27;20043;-70
2022/01/08 04:44:09;;;;;;;4.30;1.73;;;2.30;99.90;;;;;;5131255;27;20043;-69
2022/01/08 04:46:35;;;;;;;5.35;2.00;;;2.20;99.90;;;;;;5110925;27;20061;-70
2022/01/08 04:49:00;;;;;;;7.85;2.30;;;2.30;99.90;;;;;;5115720;27;20114;-70
2022/01/08 04:51:26;;;;;;;6.40;2.03;;;2.20;99.90;;;;;;5135124;27;20055;-70
2022/01/08 04:53:52;;;;;;;4.88;2.28;;;2.20;99.90;;;;;;5136049;27;20035;-70
2022/01/08 04:56:17;;;;;;;6.40;2.03;;;2.30;99.90;;;;;;5134851;27;20067;-70
2022/01/08 04:58:43;;;;;;;7.13;2.15;;;2.40;99.90;;;;;;5118879;27;20038;-69
2022/01/08 05:01:13;;;;;;;5.80;2.15;;;2.40;99.90;;;;;;5115055;27;20035;-69
2022/01/08 05:03:39;;;;;;;7.35;2.17;;;2.30;99.90;;;;;;5082404;28;20047;-69
2022/01/08 05:06:04;;;;;;;8.43;2.53;;;2.40;99.90;;;;;;5096273;28;20044;-69
2022/01/08 05:08:30;;;;;;;6.43;2.35;;;2.20;99.90;;;;;;5124734;27;20039;-69
2022/01/08 05:10:55;;;;;;;7.55;2.80;;;2.20;99.90;;;;;;5096991;28;20039;-69
2022/01/08 05:13:21;;;;;;;9.73;2.97;;;2.10;99.90;;;;;;5124447;27;20062;-70
2022/01/08 05:15:47;;;;;;;6.85;2.80;;;2.10;99.90;;;;;;5109540;28;20046;-69
2022/01/08 05:18:12;;;;;;;8.18;3.00;;;2.20;99.90;;;;;;5096082;27;20118;-69
2022/01/08 05:20:41;;;;;;;10.15;2.65;;;2.20;99.90;;;;;;5118413;27;20038;-69
2022/01/08 05:23:07;;;;;;;7.13;2.90;;;2.20;99.90;;;;;;5134275;27;20050;-69
2022/01/08 05:25:34;;;;;;;7.75;3.10;;;2.30;99.90;;;;;;5135363;27;20042;-69
2022/01/08 05:28:00;;;;;;;8.32;3.15;;;2.30;99.90;;;;;;5125067;27;20040;-69
2022/01/08 05:30:26;;;;;;;8.60;2.95;;;2.30;99.90;;;;;;5115047;28;20484;-69
2022/01/08 05:32:53;;;;;;;9.48;3.20;;;2.30;99.90;;;;;;5103067;27;20035;-69
2022/01/08 05:35:20;;;;;;;6.55;2.70;;;2.30;99.90;;;;;;5134841;27;20047;-69
2022/01/08 05:37:45;;;;;;;7.80;3.00;;;2.30;99.90;;;;;;5133905;27;20491;-69
2022/01/08 05:40:11;;;;;;;8.65;3.25;;;2.30;99.90;;;;;;5129372;27;20122;-69
2022/01/08 05:42:37;;;;;;;7.90;3.53;;;2.30;99.90;;;;;;5117525;27;20479;-69
2022/01/08 05:45:04;;;;;;;8.75;2.83;;;2.30;99.90;;;;;;5130042;27;20031;-69
2022/01/08 05:47:32;;;;;;;10.40;3.63;;;2.40;99.90;;;;;;5135241;27;20043;-69
2022/01/08 05:49:57;;;;;;;8.45;3.40;;;2.40;99.90;;;;;;5113615;27;20039;-69
2022/01/08 05:52:23;;;;;;;7.07;3.00;;;2.40;99.90;;;;;;5116727;27;20387;-69
2022/01/08 05:54:49;;;;;;;7.95;3.00;;;2.40;99.90;;;;;;5133169;27;20035;-69
2022/01/08 05:57:14;;;;;;;8.23;3.38;;;2.30;99.90;;;;;;5117934;27;20027;-69
2022/01/08 05:59:40;;;;;;;8.65;3.20;;;2.30;99.90;;;;;;5116189;27;20027;-69
2022/01/08 06:02:08;;;;;;;8.48;3.33;;;2.30;99.90;;;;;;5117602;27;20415;-69
2022/01/08 06:04:34;;;;;;;10.20;3.65;;;2.30;99.90;;;;;;5119873;27;20054;-69
2022/01/08 06:06:59;;;;;;;11.45;3.85;;;2.30;99.90;;;;;;5097066;28;20039;-69
2022/01/08 06:09:25;;;;;;;6.85;3.28;;;2.30;99.90;;;;;;5127715;27;20126;-69
2022/01/08 06:11:50;;;;;;;7.30;3.22;;;2.30;99.90;;;;;;5103713;28;20070;-69
2022/01/08 06:14:16;;;;;;;7.72;3.35;;;2.30;99.90;;;;;;5110295;28;20050;-69
2022/01/08 06:16:41;;;;;;;11.57;3.90;;;2.30;99.90;;;;;;5102758;27;20034;-69
2022/01/08 06:19:12;;;;;;;9.70;4.25;;;2.30;99.90;;;;;;5127258;27;20046;-69
2022/01/08 06:21:38;;;;;;;12.45;3.38;;;2.30;99.90;;;;;;5114114;28;20042;-69
2022/01/08 06:24:05;;;;;;;9.60;3.60;;;2.30;99.90;;;;;;5130675;27;20074;-69
2022/01/08 06:26:31;;;;;;;9.77;3.65;;;2.30;99.90;;;;;;5134148;27;20035;-69
2022/01/08 06:28:57;;;;;;;11.30;4.15;;;2.30;99.90;;;;;;5115864;27;20383;-69
2022/01/08 06:31:23;;;;;;;10.48;3.88;;;2.30;99.90;;;;;;5131246;27;20044;-69
2022/01/08 06:33:49;;;;;;;10.88;4.00;;;2.20;99.90;;;;;;5122184;27;20069;-69
2022/01/08 06:36:18;;;;;;;11.05;4.00;;;2.20;99.90;;;;;;5132457;27;20046;-69
2022/01/08 06:38:44;;;;;;;12.38;4.20;;;2.20;99.90;;;;;;5133999;27;20039;-69
2022/01/08 06:41:10;;;;;;;13.85;4.93;;;2.20;99.90;;;;;;5112375;27;20031;-69
2022/01/08 06:43:36;;;;;;;8.48;3.85;;;2.10;99.90;;;;;;5111383;27;20043;-69
2022/01/08 06:46:01;;;;;;;8.15;3.33;;;2.10;99.90;;;;;;5117534;27;20036;-69
2022/01/08 06:48:27;;;;;;;9.05;3.55;;;2.10;99.90;;;;;;5110216;27;20039;-69
2022/01/08 06:50:53;;;;;;;9.18;3.70;;;2.10;99.90;;;;;;5112046;28;20483;-69
2022/01/08 06:53:18;;;;;;;9.30;3.80;;;2.10;99.90;;;;;;5111985;28;20055;-69
2022/01/08 06:55:44;;;;;;;11.02;3.90;;;2.10;99.90;;;;;;5111608;28;20483;-69
2022/01/08 06:58:10;;;;;;;10.68;3.90;;;2.10;99.90;;;;;;5110111;28;20063;-69
2022/01/08 07:00:36;;;;;;;10.15;3.67;;;2.10;99.90;;;;;;5110866;28;20035;-69
2022/01/08 07:03:02;;;;;;;10.00;3.42;;;2.10;99.90;;;;;;5112170;28;20050;-69
2022/01/08 07:05:28;;;;;;;7.68;3.35;;;2.10;99.90;;;;;;5094820;28;20046;-69
2022/01/08 07:07:54;;;;;;;11.40;3.78;;;2.10;99.90;;;;;;5081879;28;20404;-69
2022/01/08 07:10:19;;;;;;;8.48;3.25;;;2.10;99.90;;;;;;5109766;28;20047;-69
2022/01/08 07:12:45;;;;;;;8.73;3.15;;;2.10;99.90;;;;;;5112001;28;20044;-69
2022/01/08 07:15:12;;;;;;;10.55;3.40;;;2.10;99.90;;;;;;5111662;28;20032;-69
2022/01/08 07:17:39;;;;;;;7.22;2.83;;;2.10;99.90;;;;;;5085215;28;20503;-69
2022/01/08 07:20:05;;;;;;;10.63;3.30;;;2.00;99.90;;;;;;5086756;28;20112;-69
2022/01/08 07:22:31;;;;;;;8.25;3.35;;;2.00;99.90;;;;;;5081972;27;20039;-69
2022/01/08 07:24:56;;;;;;;11.27;4.28;;;2.00;99.90;;;;;;5088907;28;20040;-69
2022/01/08 07:27:22;;;;;;;8.68;3.30;;;2.10;99.90;;;;;;5086695;28;20043;-69
2022/01/08 07:29:48;;;;;;;13.00;3.80;;;2.10;99.90;;;;;;5094762;28;20115;-69
2022/01/08 07:32:13;;;;;;;8.98;3.35;;;2.00;99.90;;;;;;5093178;28;20035;-69
2022/01/08 07:34:39;;;;;;;8.10;2.80;;;2.00;99.90;;;;;;5088644;28;20054;-69
2022/01/08 07:37:04;;;;;;;7.15;3.22;;;2.00;99.90;;;;;;5089782;28;20500;-69
2022/01/08 07:39:31;;;;;;;9.73;3.10;;;2.00;99.90;;;;;;5104145;28;20024;-69
2022/01/08 07:41:57;;;;;;;6.97;2.60;;;2.00;99.90;;;;;;5090400;28;20063;-69
2022/01/08 07:44:22;;;;;;;7.97;2.88;;;2.00;99.90;;;;;;5088948;28;20067;-69
2022/01/08 07:46:48;;;;;;;8.43;3.00;;;2.10;99.90;;;;;;5088091;28;20468;-69
2022/01/08 07:49:14;;;;;;;6.65;2.90;;;2.10;99.90;;;;;;5088153;28;20076;-69
2022/01/08 07:51:39;;;;;;;8.60;3.55;;;2.00;99.90;;;;;;5088439;28;20039;-69
2022/01/08 07:54:06;;;;;;;9.02;3.03;;;2.00;99.90;;;;;;5094434;28;20076;-69
2022/01/08 07:56:34;;;;;;;10.18;3.03;;;2.00;99.90;;;;;;5108417;28;20039;-69
2022/01/08 07:59:00;;;;;;;7.97;3.03;;;2.00;99.90;;;;;;5111499;28;20044;-77
2022/01/08 08:01:26;;;;;;;7.20;3.58;;;2.00;99.90;;;;;;5092432;28;20189;-81
2022/01/08 08:03:51;;;;;;;8.63;4.00;;;2.10;99.90;;;;;;5089292;28;20035;-69
2022/01/08 08:06:17;;;;;;;8.20;3.13;;;2.10;99.90;;;;;;5094802;28;20135;-69
2022/01/08 08:08:44;;;;;;;7.72;3.53;;;2.20;99.90;;;;;;5110944;28;20081;-69
2022/01/08 08:11:09;;;;;;;10.57;3.25;;;2.10;99.90;;;;;;5114301;28;20031;-69
2022/01/08 08:13:35;;;;;;;13.80;3.85;;;2.10;99.90;;;;;;5094992;28;20415;-69
2022/01/08 08:16:01;;;;;;;7.65;3.30;;;2.10;99.90;;;;;;5113148;28;20038;-69
2022/01/08 08:18:26;;;;;;;9.65;3.03;;;2.10;99.90;;;;;;5095599;28;20117;-69
2022/01/08 08:20:52;;;;;;;10.25;3.63;;;2.10;99.90;;;;;;5094322;28;20422;-69
2022/01/08 08:23:18;;;;;;;6.07;2.50;;;2.10;99.90;;;;;;5094561;28;20027;-69
2022/01/08 08:25:43;;;;;;;10.75;2.88;;;2.20;99.90;;;;;;5113564;28;20038;-69
2022/01/08 08:28:09;;;;;;;7.53;2.80;;;2.10;99.90;;;;;;5109937;28;20027;-69
2022/01/08 08:30:35;;;;;;;11.68;3.58;;;2.20;99.90;;;;;;5096887;28;20035;-69
2022/01/08 08:33:01;;;;;;;8.82;2.90;;;2.10;99.90;;;;;;5094479;28;20138;-69
2022/01/08 08:35:27;;;;;;;8.90;3.00;;;2.20;99.90;;;;;;5096699;28;20057;-69
2022/01/08 08:37:53;;;;;;;8.35;2.60;;;2.20;99.90;;;;;;5114964;28;20122;-69
2022/01/08 08:40:19;;;;;;;8.85;2.50;;;2.30;99.90;;;;;;5112604;28;20044;-69
2022/01/08 08:42:45;;;;;;;9.88;2.92;;;2.30;99.90;;;;;;5096924;28;20039;-69
2022/01/08 08:45:11;;;;;;;6.40;2.40;;;2.30;99.90;;;;;;5112936;28;20039;-69
2022/01/08 08:47:39;;;;;;;11.55;3.22;;;2.30;99.90;;;;;;5110808;28;20027;-69
2022/01/08 08:50:06;;;;;;;7.20;2.30;;;2.30;99.90;;;;;;5098623;28;20036;-69
2022/01/08 08:52:33;;;;;;;7.45;2.38;;;2.30;99.90;;;;;;5096051;28;20096;-69
2022/01/08 08:54:58;;;;;;;9.52;2.95;;;2.40;99.90;;;;;;5098501;28;20075;-69
2022/01/08 08:57:24;;;;;;;6.60;2.17;;;2.30;99.90;;;;;;5114525;28;20074;-70
2022/01/08 08:59:50;;;;;;;9.93;2.55;;;2.40;99.90;;;;;;5098504;28;20035;-70
2022/01/08 09:02:15;;;;;;;7.78;2.42;;;2.40;99.90;;;;;;5097753;28;20043;-70
2022/01/08 09:04:42;;;;;;;4.78;2.05;;;2.50;99.90;;;;;;5113825;28;20088;-70
2022/01/08 09:07:07;;;;;;;7.68;2.60;;;2.50;99.90;;;;;;5115295;28;20055;-70
2022/01/08 09:09:33;;;;;;;6.00;2.17;;;2.50;99.90;;;;;;5114697;28;20153;-70
2022/01/08 09:11:59;;;;;;;6.60;2.38;;;2.50;99.90;;;;;;5098606;28;20047;-69
2022/01/08 09:14:25;;;;;;;10.10;2.70;;;2.50;99.90;;;;;;5096856;28;20092;-70
2022/01/08 09:16:57;;;;;;;6.40;2.58;;;2.50;99.90;;;;;;5115126;28;20048;-70
2022/01/08 09:19:22;;;;;;;7.57;2.25;;;2.50;99.90;;;;;;5112122;28;20101;-70
2022/01/08 09:21:49;;;;;;;5.97;2.30;;;2.60;99.90;;;;;;5115078;28;20036;-70
2022/01/08 09:24:18;;;;;;;7.95;2.60;;;2.60;99.90;;;;;;5096053;28;20067;-70
2022/01/08 09:26:44;;;;;;;5.30;2.03;;;2.70;99.90;;;;;;5114947;28;20055;-70
2022/01/08 09:29:10;;;;;;;8.63;2.70;;;2.70;99.90;;;;;;5114078;28;20043;-70
2022/01/08 09:31:37;;;;;;;8.50;2.97;;;2.70;99.90;;;;;;5097829;28;20046;-70
2022/01/08 09:34:02;;;;;;;7.63;3.17;;;2.80;99.90;;;;;;5113768;28;20052;-70
2022/01/08 09:36:28;;;;;;;7.85;2.53;;;2.80;99.90;;;;;;5114763;28;20044;-70
2022/01/08 09:38:54;;;;;;;9.20;2.55;;;2.80;99.90;;;;;;5113017;28;20123;-70
2022/01/08 09:41:19;;;;;;;8.43;3.10;;;2.90;99.90;;;;;;5114518;28;20034;-70
2022/01/08 09:43:45;;;;;;;9.52;3.42;;;2.90;99.90;;;;;;5096247;28;20040;-70
2022/01/08 09:46:13;;;;;;;12.40;3.03;;;3.00;99.90;;;;;;5114791;28;20078;-70
2022/01/08 09:48:38;;;;;;;7.78;3.08;;;3.00;99.90;;;;;;5113111;28;20441;-70
2022/01/08 09:51:04;;;;;;;12.07;2.83;;;3.00;99.90;;;;;;5096085;28;20047;-70
2022/01/08 09:53:29;;;;;;;10.75;3.45;;;3.00;99.90;;;;;;5114320;28;20039;-70
2022/01/08 09:55:55;;;;;;;8.27;2.78;;;3.10;99.90;;;;;;5094814;28;20047;-70
2022/01/08 09:58:21;;;;;;;10.73;3.20;;;3.00;99.90;;;;;;5096756;28;20401;-70
2022/01/08 10:00:47;;;;;;;5.85;2.65;;;3.00;99.90;;;;;;5114370;28;20032;-70
2022/01/08 10:03:18;;;;;;;6.07;2.47;;;3.00;99.90;;;;;;5113322;28;20559;-70
2022/01/08 10:05:55;;;;;;;7.20;2.92;;;3.10;99.90;;;;;;5114249;28;20039;-70
2022/01/08 10:08:31;;;;;;;9.00;2.67;;;3.20;99.90;;;;;;5111471;28;20035;-70
2022/01/08 10:11:05;;;;;;;7.45;2.38;;;3.20;99.90;;;;;;5097155;28;20035;-70
2022/01/08 10:13:35;;;;;;;12.38;3.20;;;3.30;99.90;;;;;;5109144;28;20035;-70
2022/01/08 10:18:46;;;;;;;9.23;2.90;;;3.30;99.90;;;;;;5110763;28;20470;-70
2022/01/08 10:21:16;;;;;;;10.15;3.00;;;3.30;99.90;;;;;;5111149;28;20046;-70
2022/01/08 10:23:44;;;;;;;9.05;3.13;;;3.40;99.90;;;;;;5111256;28;20039;-70
2022/01/08 10:26:13;;;;;;;12.77;4.20;;;3.50;99.90;;;;;;5112788;28;20050;-70
2022/01/08 10:28:48;;;;;;;8.30;3.17;;;3.50;99.90;;;;;;5093952;28;20035;-70
2022/01/08 10:31:21;;;;;;;8.13;3.13;;;3.50;99.90;;;;;;5111803;27;20062;-70
2022/01/08 10:34:12;;;;;;;13.00;3.65;;;3.60;99.90;;;;;;5095225;27;20040;-70
2022/01/08 10:36:42;;;;;;;10.63;3.85;;;3.70;99.90;;;;;;5096938;27;20042;-70
2022/01/08 10:39:34;;;;;;;9.75;3.72;;;3.60;99.90;;;;;;5102431;27;20031;-70
2022/01/08 10:42:10;;;;;;;10.65;4.03;;;3.50;99.90;;;;;;5114111;27;20429;-70
2022/01/08 10:44:37;;;;;;;10.82;4.13;;;3.50;99.90;;;;;;5103535;28;20070;-70
2022/01/08 10:47:08;;;;;;;13.10;4.25;;;3.50;99.90;;;;;;5095869;28;20496;-70
2022/01/08 10:49:53;;;;;;;10.63;4.40;;;3.50;99.90;;;;;;5113770;27;20038;-70
2022/01/08 10:52:21;;;;;;;8.65;4.60;;;3.60;99.90;;;;;;5098191;27;20046;-70
2022/01/08 10:54:53;;;;;;;13.85;4.68;;;3.70;99.90;;;;;;5116509;27;20046;-70
2022/01/08 10:57:19;;;;;;;11.35;5.05;;;3.70;99.90;;;;;;5115635;27;20050;-70
2022/01/08 10:59:45;;;;;;;9.77;4.30;;;3.70;99.90;;;;;;5115021;27;20039;-70
2022/01/08 11:02:15;;;;;;;11.18;4.43;;;3.90;99.90;;;;;;5111708;27;20038;-70
2022/01/08 11:04:50;;;;;;;11.80;5.13;;;3.90;99.90;;;;;;5115999;27;20041;-70
2022/01/08 11:07:25;;;;;;;8.95;4.88;;;3.80;99.90;;;;;;5104019;28;20046;-70
2022/01/08 11:09:53;;;;;;;11.25;5.20;;;3.70;99.90;;;;;;5114993;27;20856;-70
2022/01/08 11:12:26;;;;;;;12.63;6.03;;;3.70;99.90;;;;;;5086469;27;20035;-70
2022/01/08 11:17:23;;;;;;;12.88;4.88;;;3.80;99.90;;;;;;5115905;27;20128;-70
2022/01/08 11:20:11;;;;;;;10.40;5.13;;;3.80;99.90;;;;;;5110366;27;20092;-70
2022/01/08 11:22:39;;;;;;;11.38;5.00;;;3.80;99.90;;;;;;5106098;27;20165;-70
2022/01/08 11:25:17;;;;;;;8.77;5.25;;;3.80;99.90;;;;;;5113476;27;20086;-70
2022/01/08 11:28:08;;;;;;;10.93;5.25;;;3.80;99.90;;;;;;5098840;27;20043;-70
2022/01/08 11:30:44;;;;;;;12.32;5.32;;;3.80;99.90;;;;;;5099041;27;20058;-70
2022/01/08 11:33:19;;;;;;;11.48;5.35;;;4.00;99.90;;;;;;5124054;27;20120;-70
2022/01/08 11:35:46;;;;;;;11.50;5.78;;;4.00;99.90;;;;;;5096288;27;20054;-70
2022/01/08 11:38:16;;;;;;;9.70;4.88;;;4.00;99.90;;;;;;5087881;27;20741;-70
2022/01/08 11:40:44;;;;;;;10.93;5.50;;;4.00;99.90;;;;;;5088830;28;21296;-70
2022/01/08 11:43:12;;;;;;;10.85;5.18;;;4.10;99.90;;;;;;5092319;27;20050;-70
2022/01/08 11:45:47;;;;;;;11.40;5.05;;;4.10;99.90;;;;;;5089726;27;20195;-70
2022/01/08 11:48:14;;;;;;;11.73;5.05;;;4.20;99.90;;;;;;5087978;28;20071;-70
2022/01/08 11:50:48;;;;;;;12.45;5.30;;;4.20;99.90;;;;;;5106513;28;20502;-70
2022/01/08 11:53:16;;;;;;;10.93;4.50;;;4.20;99.90;;;;;;5090806;28;20068;-70
2022/01/08 11:55:46;;;;;;;11.63;5.38;;;4.30;99.90;;;;;;5087605;28;20046;-70
2022/01/08 11:58:32;;;;;;;12.40;5.30;;;4.30;99.90;;;;;;5074442;28;20043;-70
2022/01/08 12:01:06;;;;;;;16.88;5.53;;;4.30;99.90;;;;;;5074232;28;20044;-70
2022/01/08 12:03:35;;;;;;;12.13;4.65;;;4.30;99.90;;;;;;5071581;28;20044;-70
2022/01/08 12:06:25;;;;;;;13.63;5.63;;;4.20;99.90;;;;;;5071412;28;20031;-70
2022/01/08 12:09:20;;;;;;;14.07;5.82;;;4.30;99.90;;;;;;5090291;28;20052;-70
2022/01/08 12:11:56;;;;;;;12.20;5.15;;;4.30;99.90;;;;;;5092688;28;20055;-71
2022/01/08 12:14:43;;;;;;;12.23;4.88;;;4.30;99.90;;;;;;5089644;28;20039;-71
2022/01/08 12:17:21;;;;;;;10.70;5.50;;;4.30;99.90;;;;;;5088146;28;20044;-70
2022/01/08 12:19:58;;;;;;;10.20;5.70;;;4.50;99.90;;;;;;5091774;28;20062;-70
2022/01/08 12:22:23;;;;;;;12.30;5.68;;;4.50;99.90;;;;;;5073606;28;20063;-70
2022/01/08 12:24:53;;;;;;;12.18;6.35;;;4.50;99.90;;;;;;5073857;28;20184;-70
2022/01/08 12:27:40;;;;;;;10.25;6.15;;;4.40;99.90;;;;;;5076619;28;20059;-70
2022/01/08 12:30:31;;;;;;;12.18;6.18;;;4.40;99.90;;;;;;5080686;28;20039;-70
2022/01/08 12:33:17;;;;;;;11.65;6.30;;;4.50;99.90;;;;;;5087857;28;20054;-70
2022/01/08 12:35:42;;;;;;;10.93;7.15;;;4.40;99.90;;;;;;5099396;28;20051;-70
2022/01/08 12:38:24;;;;;;;14.82;7.30;;;4.30;99.90;;;;;;5069594;28;20040;-70
2022/01/08 12:40:50;;;;;;;11.65;7.78;;;4.50;99.90;;;;;;5087318;28;20069;-70
2022/01/08 12:43:36;;;;;;;13.57;8.50;;;4.50;99.90;;;;;;5073923;28;20127;-71
2022/01/08 12:46:14;;;;;;;16.17;9.68;;;4.50;99.90;;;;;;5087543;28;20043;-71
2022/01/08 12:48:59;;;;;;;12.07;7.38;;;4.50;99.90;;;;;;5069811;28;20442;-70
2022/01/08 12:51:26;;;;;;;13.68;8.60;;;4.50;99.90;;;;;;5071613;28;20112;-70
2022/01/08 12:54:05;;;;;;;13.73;9.43;;;4.40;99.90;;;;;;5073304;28;21476;-70
2022/01/08 12:56:30;;;;;;;18.17;9.70;;;4.40;99.90;;;;;;5090301;28;20046;-70
2022/01/08 12:58:57;;;;;;;13.13;8.77;;;4.50;99.90;;;;;;5072792;28;20040;-70
2022/01/08 13:01:24;;;;;;;14.02;9.80;;;4.50;99.90;;;;;;5097825;28;20661;-70
2022/01/08 13:03:54;;;;;;;15.43;9.88;;;4.50;99.90;;;;;;5092431;28;20680;-70
2022/01/08 13:06:33;;;;;;;16.77;10.25;;;4.50;99.90;;;;;;5073497;28;20042;-70
2022/01/08 13:09:00;;;;;;;14.40;9.27;;;4.50;99.90;;;;;;5091336;28;20448;-70
2022/01/08 13:11:28;;;;;;;15.30;10.15;;;4.50;99.90;;;;;;5091140;28;20039;-70
2022/01/08 13:13:55;;;;;;;16.30;11.23;;;4.50;99.90;;;;;;5084942;28;20035;-70
2022/01/08 13:16:32;;;;;;;14.27;10.40;;;4.40;99.90;;;;;;5080783;28;20051;-70
2022/01/08 13:18:59;;;;;;;15.27;10.13;;;4.50;99.90;;;;;;5089029;28;20047;-70